createdAt,value
2019-01-18T00:01:50.426Z,4.28
2019-01-18T00:02:50.413Z,4.31
2019-01-18T00:03:50.403Z,4.35
2019-01-18T00:04:50.394Z,4.27
2019-01-18T00:05:50.410Z,4.27
2019-01-18T00:07:50.360Z,4.30
2019-01-18T00:08:50.347Z,4.27
2019-01-18T00:09:50.337Z,4.30
2019-01-18T00:10:50.325Z,4.26
2019-01-18T00:11:50.324Z,4.26
2019-01-18T00:13:50.293Z,4.26
2019-01-18T00:14:50.283Z,4.28
2019-01-18T00:15:50.270Z,4.20
2019-01-18T00:16:50.264Z,4.16
2019-01-18T00:17:50.255Z,4.12
2019-01-18T00:19:50.232Z,4.16
2019-01-18T00:21:50.208Z,4.18
2019-01-18T00:22:50.194Z,4.16
2019-01-18T00:23:50.186Z,4.10
2019-01-18T00:24:50.179Z,4.13
2019-01-18T00:25:50.164Z,4.12
2019-01-18T00:26:50.149Z,4.12
2019-01-18T00:27:50.139Z,4.20
2019-01-18T00:28:50.131Z,4.21
2019-01-18T00:29:50.120Z,4.12
2019-01-18T00:30:50.112Z,4.07
2019-01-18T00:32:50.084Z,4.12
2019-01-18T00:33:50.079Z,3.99
2019-01-18T00:34:50.059Z,4.12
2019-01-18T00:40:49.994Z,3.84
2019-01-18T00:41:49.985Z,3.89
2019-01-18T00:42:49.972Z,3.79
2019-01-18T00:43:49.961Z,3.84
2019-01-18T00:44:49.952Z,3.84
2019-01-18T00:45:49.939Z,3.80
2019-01-18T00:46:49.938Z,3.75
2019-01-18T00:47:49.921Z,3.81
2019-01-18T00:48:49.911Z,3.79
2019-01-18T00:49:49.901Z,3.73
2019-01-18T00:50:49.884Z,3.73
2019-01-18T00:51:49.873Z,3.86
2019-01-18T00:52:49.862Z,3.86
2019-01-18T00:53:49.850Z,3.81
2019-01-18T00:55:49.828Z,3.87
2019-01-18T01:00:49.774Z,3.89
2019-01-18T01:01:49.761Z,3.86
2019-01-18T01:02:49.756Z,3.77
2019-01-18T01:03:50.475Z,3.83
2019-01-18T01:05:49.718Z,3.81
2019-01-18T01:06:49.707Z,3.75
2019-01-18T01:07:49.700Z,3.81
2019-01-18T01:09:49.674Z,3.91
2019-01-18T01:10:49.664Z,3.84
2019-01-18T01:11:49.651Z,3.95
2019-01-18T01:12:49.641Z,3.98
2019-01-18T01:13:49.634Z,3.81
2019-01-18T01:14:49.619Z,3.89
2019-01-18T01:15:49.612Z,3.98
2019-01-18T01:16:49.605Z,3.91
2019-01-18T01:17:49.591Z,3.99
2019-01-18T01:18:49.574Z,3.98
2019-01-18T01:20:49.561Z,3.95
2019-01-18T01:21:49.546Z,4.04
2019-01-18T01:22:49.536Z,3.98
2019-01-18T01:24:49.509Z,3.77
2019-01-18T01:25:49.505Z,3.77
2019-01-18T01:26:49.485Z,3.62
2019-01-18T01:27:49.476Z,3.69
2019-01-18T01:28:49.465Z,3.63
2019-01-18T01:33:49.410Z,3.59
2019-01-18T01:38:49.362Z,3.69
2019-01-18T01:43:49.304Z,3.47
2019-01-18T01:48:49.240Z,3.47
2019-01-18T01:51:49.209Z,3.41
2019-01-18T01:53:49.183Z,3.33
2019-01-18T01:54:49.176Z,3.26
2019-01-18T01:57:49.138Z,3.08
2019-01-18T01:59:49.962Z,2.89
2019-01-18T02:03:49.072Z,2.73
2019-01-18T02:06:49.037Z,2.81
2019-01-18T02:07:49.027Z,2.75
2019-01-18T02:09:49.004Z,2.72
2019-01-18T02:10:48.993Z,2.75
2019-01-18T02:12:48.971Z,2.71
2019-01-18T02:13:48.960Z,2.59
2019-01-18T02:16:48.930Z,2.68
2019-01-18T02:17:48.915Z,2.75
2019-01-18T02:18:48.904Z,2.78
2019-01-18T02:22:48.858Z,2.86
2019-01-18T02:23:48.855Z,2.79
2019-01-18T02:26:48.819Z,2.71
2019-01-18T02:29:48.779Z,2.72
2019-01-18T02:31:48.760Z,2.46
2019-01-18T02:38:48.681Z,2.27
2019-01-18T02:40:48.656Z,2.23
2019-01-18T02:41:48.648Z,2.24
2019-01-18T02:42:48.644Z,2.36
2019-01-18T02:43:48.634Z,2.31
2019-01-18T02:44:48.616Z,2.46
2019-01-18T02:46:48.590Z,2.36
2019-01-18T02:48:48.566Z,2.24
2019-01-18T02:50:48.549Z,2.11
2019-01-18T02:53:48.512Z,2.24
2019-01-18T02:54:48.501Z,2.24
2019-01-18T02:55:48.535Z,2.24
2019-01-18T02:57:48.468Z,2.18
2019-01-18T02:58:48.457Z,2.20
2019-01-18T03:01:48.425Z,2.20
2019-01-18T03:05:48.383Z,2.29
2019-01-18T03:07:48.359Z,2.27
2019-01-18T03:09:48.335Z,2.27
2019-01-18T03:10:48.327Z,2.27
2019-01-18T03:11:48.314Z,2.18
2019-01-18T03:13:48.290Z,2.23
2019-01-18T03:14:48.281Z,2.21
2019-01-18T03:18:48.238Z,2.16
2019-01-18T03:19:48.227Z,2.16
2019-01-18T03:20:48.213Z,2.13
2019-01-18T03:22:48.205Z,2.09
2019-01-18T03:23:48.182Z,2.13
2019-01-18T03:24:48.175Z,2.05
2019-01-18T03:26:48.148Z,1.92
2019-01-18T03:27:48.147Z,1.98
2019-01-18T03:28:48.133Z,1.92
2019-01-18T03:29:48.121Z,1.93
2019-01-18T03:31:48.095Z,1.82
2019-01-18T03:32:48.085Z,1.77
2019-01-18T03:33:48.082Z,1.69
2019-01-18T03:34:48.065Z,1.71
2019-01-18T03:35:48.050Z,1.73
2019-01-18T03:36:48.036Z,1.73
2019-01-18T03:37:48.084Z,1.67
2019-01-18T03:38:48.015Z,1.66
2019-01-18T03:40:48.004Z,1.74
2019-01-18T03:41:47.988Z,1.67
2019-01-18T03:42:47.972Z,1.71
2019-01-18T03:43:48.006Z,1.67
2019-01-18T03:46:47.927Z,1.81
2019-01-18T03:47:47.969Z,1.69
2019-01-18T03:48:47.907Z,1.75
2019-01-18T03:49:47.896Z,1.73
2019-01-18T03:50:47.885Z,1.64
2019-01-18T03:51:47.875Z,1.66
2019-01-18T03:52:47.865Z,1.64
2019-01-18T03:54:47.841Z,1.67
2019-01-18T03:55:47.830Z,1.64
2019-01-18T03:57:47.808Z,1.66
2019-01-18T03:58:47.800Z,1.60
2019-01-18T03:59:47.787Z,1.62
2019-01-18T04:01:47.768Z,1.62
2019-01-18T04:02:47.765Z,1.67
2019-01-18T04:03:47.747Z,1.67
2019-01-18T04:04:47.734Z,1.69
2019-01-18T04:05:47.720Z,1.78
2019-01-18T04:07:47.703Z,1.84
2019-01-18T04:08:47.687Z,1.80
2019-01-18T04:09:47.680Z,1.82
2019-01-18T04:10:47.667Z,1.78
2019-01-18T04:11:47.655Z,1.77
2019-01-18T04:14:47.622Z,1.80
2019-01-18T04:17:47.638Z,1.77
2019-01-18T04:18:47.581Z,1.73
2019-01-18T04:19:47.568Z,1.74
2019-01-18T04:20:47.557Z,1.73
2019-01-18T04:22:47.535Z,1.77
2019-01-18T04:23:47.528Z,1.75
2019-01-18T04:24:47.512Z,1.87
2019-01-18T04:25:47.507Z,1.77
2019-01-18T04:27:47.482Z,1.80
2019-01-18T04:28:47.468Z,1.92
2019-01-18T04:31:47.436Z,1.77
2019-01-18T04:32:47.429Z,1.80
2019-01-18T04:34:47.405Z,1.78
2019-01-18T04:35:47.393Z,1.87
2019-01-18T04:36:47.383Z,1.89
2019-01-18T04:37:47.376Z,1.82
2019-01-18T04:38:47.360Z,1.91
2019-01-18T04:40:47.337Z,1.93
2019-01-18T04:41:47.338Z,1.87
2019-01-18T04:42:47.328Z,1.87
2019-01-18T04:43:47.312Z,1.89
2019-01-18T04:44:47.299Z,1.84
2019-01-18T04:45:47.288Z,1.77
2019-01-18T04:48:47.253Z,2.02
2019-01-18T04:52:47.207Z,1.98
2019-01-18T04:53:47.196Z,1.95
2019-01-18T04:54:47.186Z,1.89
2019-01-18T04:55:47.188Z,1.92
2019-01-18T04:57:47.162Z,1.93
2019-01-18T04:58:47.143Z,1.93
2019-01-18T04:59:47.133Z,1.92
2019-01-18T05:01:47.114Z,1.93
2019-01-18T05:02:47.101Z,1.92
2019-01-18T05:04:47.082Z,1.82
2019-01-18T05:05:47.068Z,1.82
2019-01-18T05:06:47.060Z,1.91
2019-01-18T05:08:47.039Z,1.87
2019-01-18T05:09:47.024Z,1.87
2019-01-18T05:10:47.015Z,1.93
2019-01-18T05:11:47.005Z,1.95
2019-01-18T05:12:46.994Z,1.93
2019-01-18T05:13:46.979Z,1.93
2019-01-18T05:14:46.967Z,1.96
2019-01-18T05:15:46.961Z,1.96
2019-01-18T05:17:46.936Z,1.95
2019-01-18T05:19:46.919Z,1.93
2019-01-18T05:20:46.902Z,1.92
2019-01-18T05:22:46.889Z,2.02
2019-01-18T05:23:46.869Z,2.06
2019-01-18T05:24:49.530Z,2.11
2019-01-18T05:25:46.856Z,2.11
2019-01-18T05:26:46.836Z,2.14
2019-01-18T05:27:46.826Z,2.03
2019-01-18T05:28:46.816Z,1.95
2019-01-18T05:29:46.811Z,2.03
2019-01-18T05:30:47.701Z,1.99
2019-01-18T05:31:46.782Z,2.02
2019-01-18T05:33:46.759Z,1.98
2019-01-18T05:37:46.744Z,1.74
2019-01-18T05:39:46.756Z,1.82
2019-01-18T05:40:46.702Z,1.81
2019-01-18T05:41:46.699Z,1.92
2019-01-18T05:45:46.629Z,1.84
2019-01-18T05:47:46.610Z,1.96
2019-01-18T05:48:46.600Z,1.98
2019-01-18T05:50:46.580Z,1.98
2019-01-18T05:52:46.555Z,2.02
2019-01-18T05:54:46.532Z,1.89
2019-01-18T05:55:46.520Z,1.96
2019-01-18T05:56:46.510Z,1.95
2019-01-18T05:57:46.506Z,1.92
2019-01-18T05:59:46.476Z,1.96
2019-01-18T06:01:46.455Z,1.81
2019-01-18T06:02:46.449Z,1.87
2019-01-18T06:03:46.435Z,1.85
2019-01-18T06:05:46.412Z,1.99
2019-01-18T06:06:46.403Z,1.99
2019-01-18T06:07:46.400Z,1.95
2019-01-18T06:08:46.378Z,1.93
2019-01-18T06:09:46.368Z,1.93
2019-01-18T06:10:46.356Z,1.96
2019-01-18T06:12:46.337Z,1.95
2019-01-18T06:15:46.303Z,1.75
2019-01-18T06:17:46.281Z,1.77
2019-01-18T06:20:46.247Z,1.80
2019-01-18T06:21:46.239Z,1.75
2019-01-18T06:23:46.215Z,1.75
2019-01-18T06:24:46.207Z,1.77
2019-01-18T06:25:46.194Z,1.69
2019-01-18T06:26:46.181Z,1.63
2019-01-18T06:27:46.176Z,1.67
2019-01-18T06:28:46.161Z,1.59
2019-01-18T06:29:46.151Z,1.60
2019-01-18T06:30:46.140Z,1.62
2019-01-18T06:31:46.130Z,1.57
2019-01-18T06:32:46.122Z,1.57
2019-01-18T06:34:46.096Z,1.56
2019-01-18T06:35:46.088Z,1.55
2019-01-18T06:36:46.074Z,1.56
2019-01-18T06:37:46.073Z,1.62
2019-01-18T06:38:46.051Z,1.53
2019-01-18T06:39:46.039Z,1.64
2019-01-18T06:40:46.029Z,1.64
2019-01-18T06:41:46.017Z,1.62
2019-01-18T06:42:46.011Z,1.64
2019-01-18T06:43:45.997Z,1.74
2019-01-18T06:44:45.988Z,1.67
2019-01-18T06:45:45.977Z,1.66
2019-01-18T06:46:45.969Z,1.62
2019-01-18T06:47:45.957Z,1.63
2019-01-18T06:48:45.947Z,1.55
2019-01-18T06:49:45.941Z,1.55
2019-01-18T06:50:45.919Z,1.49
2019-01-18T06:51:45.911Z,1.59
2019-01-18T06:52:45.904Z,1.55
2019-01-18T06:53:45.889Z,1.52
2019-01-18T06:54:45.876Z,1.46
2019-01-18T06:55:45.864Z,1.45
2019-01-18T06:56:45.855Z,1.57
2019-01-18T06:57:45.843Z,1.55
2019-01-18T06:58:45.834Z,1.48
2019-01-18T06:59:45.823Z,1.42
2019-01-18T07:00:45.814Z,1.45
2019-01-18T07:01:45.800Z,1.55
2019-01-18T07:02:45.789Z,1.59
2019-01-18T07:03:45.778Z,1.63
2019-01-18T07:04:45.772Z,1.64
2019-01-18T07:05:45.757Z,1.57
2019-01-18T07:06:45.746Z,1.57
2019-01-18T07:07:45.734Z,1.60
2019-01-18T07:08:45.723Z,1.67
2019-01-18T07:09:45.719Z,1.60
2019-01-18T07:10:45.703Z,1.55
2019-01-18T07:11:45.694Z,1.59
2019-01-18T07:12:45.682Z,1.44
2019-01-18T07:13:45.669Z,1.53
2019-01-18T07:14:45.657Z,1.39
2019-01-18T07:15:45.648Z,1.35
2019-01-18T07:16:45.637Z,1.45
2019-01-18T07:17:45.625Z,1.44
2019-01-18T07:18:45.613Z,1.45
2019-01-18T07:19:45.606Z,1.35
2019-01-18T07:20:45.595Z,1.38
2019-01-18T07:21:45.584Z,1.42
2019-01-18T07:22:45.570Z,1.48
2019-01-18T07:23:45.562Z,1.49
2019-01-18T07:24:45.550Z,1.56
2019-01-18T07:25:45.539Z,1.56
2019-01-18T07:26:45.528Z,1.44
2019-01-18T07:27:45.522Z,1.44
2019-01-18T07:28:45.506Z,1.42
2019-01-18T07:29:45.496Z,1.28
2019-01-18T07:30:45.485Z,1.27
2019-01-18T07:31:45.475Z,1.30
2019-01-18T07:32:45.462Z,1.19
2019-01-18T07:33:45.451Z,1.23
2019-01-18T07:34:45.443Z,1.22
2019-01-18T07:35:45.447Z,1.26
2019-01-18T07:36:45.418Z,1.05
2019-01-18T07:37:45.410Z,1.15
2019-01-18T07:38:45.398Z,1.07
2019-01-18T07:39:45.387Z,1.19
2019-01-18T07:40:45.378Z,1.20
2019-01-18T07:41:45.365Z,1.27
2019-01-18T07:42:45.354Z,1.41
2019-01-18T07:43:45.349Z,1.38
2019-01-18T07:44:45.331Z,1.45
2019-01-18T07:45:45.327Z,1.46
2019-01-18T07:46:45.309Z,1.48
2019-01-18T07:47:45.299Z,1.53
2019-01-18T07:48:45.293Z,1.62
2019-01-18T07:49:45.283Z,1.64
2019-01-18T07:50:45.271Z,1.64
2019-01-18T07:51:45.257Z,1.67
2019-01-18T07:52:45.247Z,1.60
2019-01-18T07:53:45.235Z,1.56
2019-01-18T07:54:45.223Z,1.53
2019-01-18T07:55:45.211Z,1.49
2019-01-18T07:56:45.205Z,1.48
2019-01-18T07:57:45.191Z,1.55
2019-01-18T07:58:45.180Z,1.59
2019-01-18T07:59:45.170Z,1.55
2019-01-18T08:00:45.157Z,1.55
2019-01-18T08:01:45.146Z,1.49
2019-01-18T08:02:45.137Z,1.62
2019-01-18T08:03:45.125Z,1.60
2019-01-18T08:04:45.117Z,1.69
2019-01-18T08:05:45.102Z,1.74
2019-01-18T08:06:45.097Z,1.77
2019-01-18T08:07:45.080Z,1.66
2019-01-18T08:08:45.072Z,1.80
2019-01-18T08:09:45.061Z,1.80
2019-01-18T08:10:45.052Z,1.74
2019-01-18T08:11:45.045Z,1.75
2019-01-18T08:12:45.033Z,1.80
2019-01-18T08:13:45.022Z,1.69
2019-01-18T08:14:45.006Z,1.71
2019-01-18T08:15:44.994Z,1.67
2019-01-18T08:16:44.995Z,1.74
2019-01-18T08:17:44.972Z,1.67
2019-01-18T08:18:44.961Z,1.82
2019-01-18T08:19:44.950Z,1.91
2019-01-18T08:20:44.939Z,2.05
2019-01-18T08:21:44.928Z,2.20
2019-01-18T08:22:44.918Z,2.27
2019-01-18T08:23:45.690Z,2.36
2019-01-18T08:24:44.894Z,2.52
2019-01-18T08:25:44.888Z,2.38
2019-01-18T08:26:44.876Z,2.42
2019-01-18T08:27:44.867Z,2.62
2019-01-18T08:28:44.864Z,2.69
2019-01-18T08:29:44.852Z,2.73
2019-01-18T08:30:44.834Z,3.11
2019-01-18T08:31:44.847Z,3.20
2019-01-18T08:32:44.808Z,3.43
2019-01-18T08:33:44.797Z,3.53
2019-01-18T08:34:44.788Z,3.61
2019-01-18T08:35:44.774Z,3.75
2019-01-18T08:36:44.765Z,4.02
2019-01-18T08:37:44.760Z,4.30
2019-01-18T08:38:44.750Z,4.57
2019-01-18T08:39:44.730Z,4.95
2019-01-18T08:40:44.724Z,5.18
2019-01-18T08:41:44.707Z,5.67
2019-01-18T08:42:44.698Z,6.18
2019-01-18T08:43:44.686Z,6.36
2019-01-18T08:44:44.676Z,6.49
2019-01-18T08:45:44.662Z,6.64
2019-01-18T08:46:44.653Z,6.77
2019-01-18T08:47:44.640Z,6.63
2019-01-18T08:48:44.628Z,6.66
2019-01-18T08:49:44.619Z,6.69
2019-01-18T08:50:44.610Z,6.60
2019-01-18T08:51:44.600Z,6.66
2019-01-18T08:52:44.587Z,6.97
2019-01-18T08:53:44.601Z,7.54
2019-01-18T08:54:44.563Z,8.18
2019-01-18T08:55:44.562Z,8.53
2019-01-18T08:56:44.542Z,8.80
2019-01-18T08:57:44.531Z,9.17
2019-01-18T08:58:44.519Z,9.61
2019-01-18T08:59:44.508Z,9.93
2019-01-18T09:00:44.496Z,10.05
2019-01-18T09:01:44.485Z,10.20
2019-01-18T09:02:44.473Z,10.24
2019-01-18T09:03:44.467Z,10.17
2019-01-18T09:04:44.451Z,9.91
2019-01-18T09:05:44.439Z,9.91
2019-01-18T09:06:44.437Z,10.01
2019-01-18T09:07:44.420Z,10.34
2019-01-18T09:08:44.408Z,10.79
2019-01-18T09:09:44.414Z,10.79
2019-01-18T09:10:44.412Z,10.57
2019-01-18T09:11:44.384Z,10.42
2019-01-18T09:12:44.361Z,10.56
2019-01-18T09:13:44.351Z,10.45
2019-01-18T09:14:44.339Z,10.81
2019-01-18T09:15:44.331Z,10.75
2019-01-18T09:16:44.317Z,11.07
2019-01-18T09:17:44.311Z,11.12
2019-01-18T09:18:44.296Z,11.33
2019-01-18T09:19:44.284Z,11.12
2019-01-18T09:20:44.274Z,10.99
2019-01-18T09:21:44.264Z,11.38
2019-01-18T09:22:44.251Z,11.84
2019-01-18T09:23:44.247Z,11.99
2019-01-18T09:24:44.236Z,11.84
2019-01-18T09:25:44.218Z,11.76
2019-01-18T09:26:44.214Z,12.07
2019-01-18T09:27:44.197Z,12.57
2019-01-18T09:28:44.188Z,12.81
2019-01-18T09:29:44.178Z,13.23
2019-01-18T09:30:44.165Z,13.70
2019-01-18T09:31:44.154Z,14.16
2019-01-18T09:32:44.143Z,14.40
2019-01-18T09:33:44.138Z,14.36
2019-01-18T09:34:44.121Z,13.93
2019-01-18T09:35:44.107Z,13.66
2019-01-18T09:36:44.095Z,13.54
2019-01-18T09:37:44.086Z,13.82
2019-01-18T09:38:44.081Z,14.04
2019-01-18T09:39:45.441Z,14.15
2019-01-18T09:40:44.049Z,14.13
2019-01-18T09:41:44.198Z,13.97
2019-01-18T09:42:44.034Z,13.95
2019-01-18T09:43:44.018Z,13.84
2019-01-18T09:44:44.003Z,14.03
2019-01-18T09:45:43.996Z,14.12
2019-01-18T09:46:43.983Z,14.44
2019-01-18T09:47:43.970Z,14.23
2019-01-18T09:48:43.960Z,14.03
2019-01-18T09:49:43.948Z,13.71
2019-01-18T09:50:43.942Z,13.84
2019-01-18T09:51:43.938Z,14.02
2019-01-18T09:52:43.929Z,13.72
2019-01-18T09:53:43.912Z,14.13
2019-01-18T09:54:43.910Z,14.00
2019-01-18T09:55:43.882Z,13.99
2019-01-18T09:56:43.870Z,14.53
2019-01-18T09:57:43.860Z,14.61
2019-01-18T09:58:43.866Z,14.28
2019-01-18T09:59:43.840Z,13.99
2019-01-18T10:00:43.826Z,13.82
2019-01-18T10:01:49.305Z,14.00
2019-01-18T10:02:43.805Z,14.28
2019-01-18T10:03:43.793Z,14.81
2019-01-18T10:04:43.782Z,15.34
2019-01-18T10:05:43.771Z,15.91
2019-01-18T10:06:43.766Z,16.39
2019-01-18T10:07:43.751Z,16.35
2019-01-18T10:08:43.743Z,16.86
2019-01-18T10:09:43.728Z,17.31
2019-01-18T10:10:43.719Z,17.54
2019-01-18T10:11:43.705Z,17.45
2019-01-18T10:12:43.694Z,17.37
2019-01-18T10:13:43.688Z,16.35
2019-01-18T10:14:43.676Z,15.83
2019-01-18T10:15:43.661Z,16.23
2019-01-18T10:16:43.649Z,16.51
2019-01-18T10:17:43.639Z,16.79
2019-01-18T10:18:43.628Z,16.79
2019-01-18T10:19:43.615Z,16.28
2019-01-18T10:20:43.606Z,15.63
2019-01-18T10:21:43.599Z,15.42
2019-01-18T10:22:43.583Z,14.61
2019-01-18T10:23:43.581Z,13.90
2019-01-18T10:24:43.561Z,14.16
2019-01-18T10:25:43.552Z,15.06
2019-01-18T10:26:43.539Z,15.42
2019-01-18T10:27:43.529Z,15.62
2019-01-18T10:28:43.517Z,15.99
2019-01-18T10:29:43.509Z,14.96
2019-01-18T10:30:44.401Z,15.31
2019-01-18T10:31:43.485Z,15.68
2019-01-18T10:32:43.479Z,15.39
2019-01-18T10:33:44.811Z,15.46
2019-01-18T10:34:43.454Z,15.07
2019-01-18T10:35:43.439Z,14.69
2019-01-18T10:36:43.430Z,15.21
2019-01-18T10:37:43.421Z,16.13
2019-01-18T10:38:43.405Z,15.99
2019-01-18T10:39:43.394Z,16.06
2019-01-18T10:40:43.382Z,16.45
2019-01-18T10:41:43.372Z,17.02
2019-01-18T10:42:43.364Z,17.39
2019-01-18T10:43:43.348Z,17.62
2019-01-18T10:44:43.339Z,17.52
2019-01-18T10:45:43.328Z,17.34
2019-01-18T10:46:43.316Z,17.46
2019-01-18T10:47:43.309Z,17.25
2019-01-18T10:48:43.291Z,16.10
2019-01-18T10:49:43.288Z,15.78
2019-01-18T10:50:43.272Z,15.95
2019-01-18T10:51:43.262Z,15.69
2019-01-18T10:52:43.248Z,16.27
2019-01-18T10:53:43.236Z,17.16
2019-01-18T10:54:43.224Z,17.06
2019-01-18T10:55:43.214Z,16.39
2019-01-18T10:56:43.201Z,16.46
2019-01-18T10:57:43.190Z,17.39
2019-01-18T10:58:43.183Z,18.01
2019-01-18T10:59:43.175Z,18.46
2019-01-18T11:00:43.157Z,18.42
2019-01-18T11:01:43.147Z,18.20
2019-01-18T11:02:43.135Z,18.51
2019-01-18T11:03:43.131Z,18.64
2019-01-18T11:04:43.115Z,18.75
2019-01-18T11:05:43.102Z,18.22
2019-01-18T11:06:43.094Z,18.43
2019-01-18T11:07:43.079Z,18.17
2019-01-18T11:08:43.069Z,18.00
2019-01-18T11:09:43.059Z,17.67
2019-01-18T11:10:43.047Z,17.54
2019-01-18T11:11:43.036Z,17.85
2019-01-18T11:12:43.028Z,17.25
2019-01-18T11:13:43.014Z,16.78
2019-01-18T11:14:43.009Z,17.32
2019-01-18T11:15:42.996Z,17.43
2019-01-18T11:16:42.988Z,16.98
2019-01-18T11:17:42.974Z,17.07
2019-01-18T11:18:42.962Z,16.83
2019-01-18T11:19:42.949Z,16.83
2019-01-18T11:20:42.939Z,16.73
2019-01-18T11:21:42.973Z,16.97
2019-01-18T11:22:42.916Z,17.07
2019-01-18T11:23:42.904Z,17.57
2019-01-18T11:24:42.905Z,17.96
2019-01-18T11:25:42.909Z,18.10
2019-01-18T11:26:42.920Z,18.10
2019-01-18T11:27:42.860Z,17.80
2019-01-18T11:28:42.855Z,17.41
2019-01-18T11:29:42.859Z,17.65
2019-01-18T11:30:42.878Z,17.74
2019-01-18T11:31:42.864Z,17.54
2019-01-18T11:32:42.803Z,17.93
2019-01-18T11:33:42.800Z,17.83
2019-01-18T11:34:42.787Z,17.85
2019-01-18T11:35:42.772Z,17.68
2019-01-18T11:36:42.758Z,17.39
2019-01-18T11:37:42.748Z,17.31
2019-01-18T11:38:42.744Z,17.04
2019-01-18T11:39:42.725Z,16.56
2019-01-18T11:40:42.713Z,16.56
2019-01-18T11:41:42.700Z,17.24
2019-01-18T11:42:42.694Z,17.39
2019-01-18T11:43:42.681Z,17.57
2019-01-18T11:44:42.666Z,18.10
2019-01-18T11:45:42.658Z,18.01
2019-01-18T11:46:42.648Z,18.20
2019-01-18T11:47:42.632Z,18.83
2019-01-18T11:48:42.628Z,19.15
2019-01-18T11:49:42.616Z,19.25
2019-01-18T11:50:42.603Z,19.51
2019-01-18T11:51:42.590Z,19.56
2019-01-18T11:52:42.585Z,19.81
2019-01-18T11:53:42.571Z,19.66
2019-01-18T11:55:42.545Z,19.43
2019-01-18T11:56:42.536Z,19.16
2019-01-18T11:57:42.727Z,18.86
2019-01-18T11:58:42.510Z,18.94
2019-01-18T11:59:42.508Z,19.23
2019-01-18T12:00:42.490Z,19.38
2019-01-18T12:01:42.478Z,19.49
2019-01-18T12:02:42.470Z,19.56
2019-01-18T12:03:42.459Z,19.08
2019-01-18T12:04:42.446Z,18.64
2019-01-18T12:05:42.438Z,18.14
2019-01-18T12:06:42.427Z,17.82
2019-01-18T12:07:42.415Z,16.82
2019-01-18T12:08:42.404Z,15.72
2019-01-18T12:09:42.392Z,15.52
2019-01-18T12:10:42.379Z,15.44
2019-01-18T12:11:42.373Z,15.66
2019-01-18T12:12:42.357Z,16.25
2019-01-18T12:13:42.547Z,16.63
2019-01-18T12:14:42.341Z,17.24
2019-01-18T12:15:42.325Z,17.06
2019-01-18T12:16:42.312Z,17.34
2019-01-18T12:17:42.302Z,16.97
2019-01-18T12:18:42.298Z,16.76
2019-01-18T12:19:42.284Z,16.99
2019-01-18T12:20:42.270Z,16.86
2019-01-18T12:21:42.264Z,16.94
2019-01-18T12:22:42.247Z,17.22
2019-01-18T12:23:42.235Z,17.41
2019-01-18T12:24:42.225Z,17.35
2019-01-18T12:25:42.213Z,16.68
2019-01-18T12:26:42.203Z,16.20
2019-01-18T12:27:42.191Z,15.78
2019-01-18T12:28:42.182Z,15.80
2019-01-18T12:29:42.175Z,15.91
2019-01-18T12:30:42.165Z,16.17
2019-01-18T12:31:42.152Z,16.21
2019-01-18T12:32:42.144Z,16.31
2019-01-18T12:33:42.125Z,16.35
2019-01-18T12:34:42.142Z,16.08
2019-01-18T12:35:42.102Z,16.32
2019-01-18T12:36:42.091Z,16.56
2019-01-18T12:37:42.082Z,16.72
2019-01-18T12:38:42.074Z,16.79
2019-01-18T12:39:42.061Z,16.91
2019-01-18T12:40:42.049Z,17.35
2019-01-18T12:41:42.034Z,17.45
2019-01-18T12:42:42.027Z,17.34
2019-01-18T12:43:42.030Z,17.61
2019-01-18T12:44:42.003Z,17.61
2019-01-18T12:45:41.990Z,17.14
2019-01-18T12:46:41.978Z,17.04
2019-01-18T12:47:41.972Z,17.35
2019-01-18T12:48:41.956Z,17.64
2019-01-18T12:49:41.950Z,17.92
2019-01-18T12:50:41.946Z,17.96
2019-01-18T12:51:41.924Z,18.01
2019-01-18T12:52:41.921Z,17.92
2019-01-18T12:53:41.900Z,17.39
2019-01-18T12:54:41.902Z,16.53
2019-01-18T12:55:42.085Z,16.25
2019-01-18T12:56:41.877Z,16.68
2019-01-18T12:57:41.866Z,17.12
2019-01-18T12:58:41.852Z,17.32
2019-01-18T12:59:41.834Z,17.38
2019-01-18T13:00:41.822Z,17.20
2019-01-18T13:01:41.848Z,17.07
2019-01-18T13:02:41.799Z,16.66
2019-01-18T13:03:41.789Z,16.17
2019-01-18T13:04:41.784Z,15.58
2019-01-18T13:05:41.768Z,15.51
2019-01-18T13:06:41.756Z,15.84
2019-01-18T13:07:41.744Z,16.21
2019-01-18T13:08:41.750Z,16.31
2019-01-18T13:09:41.725Z,16.20
2019-01-18T13:10:41.716Z,16.16
2019-01-18T13:11:41.701Z,15.91
2019-01-18T13:12:41.689Z,15.69
2019-01-18T13:13:41.679Z,15.66
2019-01-18T13:14:41.670Z,15.66
2019-01-18T13:15:41.661Z,15.85
2019-01-18T13:16:41.644Z,15.96
2019-01-18T13:17:41.633Z,15.85
2019-01-18T13:18:41.622Z,15.96
2019-01-18T13:19:41.610Z,16.27
2019-01-18T13:20:41.604Z,16.56
2019-01-18T13:21:41.587Z,16.57
2019-01-18T13:22:41.583Z,16.45
2019-01-18T13:23:41.566Z,16.20
2019-01-18T13:24:41.578Z,16.16
2019-01-18T13:25:41.546Z,15.60
2019-01-18T13:26:41.531Z,15.37
2019-01-18T13:27:41.517Z,14.88
2019-01-18T13:28:41.516Z,14.63
2019-01-18T13:29:41.501Z,14.63
2019-01-18T13:30:41.492Z,14.51
2019-01-18T13:31:41.476Z,14.18
2019-01-18T13:32:41.811Z,13.93
2019-01-18T13:33:41.450Z,13.62
2019-01-18T13:34:41.440Z,13.41
2019-01-18T13:35:41.430Z,13.27
2019-01-18T13:36:41.427Z,13.53
2019-01-18T13:37:41.409Z,13.63
2019-01-18T13:38:41.401Z,13.67
2019-01-18T13:39:41.383Z,13.45
2019-01-18T13:40:41.373Z,13.02
2019-01-18T13:41:41.367Z,12.86
2019-01-18T13:42:41.349Z,12.57
2019-01-18T13:43:41.339Z,12.80
2019-01-18T13:44:43.653Z,13.26
2019-01-18T13:45:41.318Z,13.27
2019-01-18T13:46:41.307Z,13.38
2019-01-18T13:47:43.319Z,13.44
2019-01-18T13:48:41.287Z,13.42
2019-01-18T13:49:41.334Z,13.63
2019-01-18T13:50:41.265Z,13.63
2019-01-18T13:51:41.252Z,13.46
2019-01-18T13:52:41.237Z,13.17
2019-01-18T13:53:41.229Z,12.72
2019-01-18T13:54:41.216Z,12.40
2019-01-18T13:55:41.212Z,12.20
2019-01-18T13:56:41.195Z,12.39
2019-01-18T13:57:41.192Z,12.22
2019-01-18T13:58:41.171Z,11.99
2019-01-18T13:59:41.162Z,11.49
2019-01-18T14:00:41.150Z,11.23
2019-01-18T14:01:41.142Z,11.00
2019-01-18T14:02:41.128Z,10.79
2019-01-18T14:03:41.121Z,10.46
2019-01-18T14:04:41.108Z,10.42
2019-01-18T14:05:41.095Z,10.69
2019-01-18T14:06:41.087Z,11.02
2019-01-18T14:07:41.078Z,11.04
2019-01-18T14:08:41.062Z,10.77
2019-01-18T14:09:41.051Z,10.51
2019-01-18T14:10:41.039Z,10.46
2019-01-18T14:11:41.028Z,10.66
2019-01-18T14:12:41.021Z,10.82
2019-01-18T14:13:41.007Z,10.66
2019-01-18T14:14:40.996Z,10.69
2019-01-18T14:15:40.983Z,10.82
2019-01-18T14:16:40.972Z,10.71
2019-01-18T14:17:40.964Z,10.57
2019-01-18T14:18:40.949Z,10.63
2019-01-18T14:19:40.940Z,10.56
2019-01-18T14:20:40.929Z,10.46
2019-01-18T14:21:40.923Z,10.43
2019-01-18T14:22:40.911Z,10.28
2019-01-18T14:25:40.880Z,10.24
2019-01-18T14:26:40.867Z,10.28
2019-01-18T14:27:40.852Z,10.20
2019-01-18T14:28:40.848Z,9.93
2019-01-18T14:29:40.833Z,9.91
2019-01-18T14:30:40.818Z,9.76
2019-01-18T14:31:40.810Z,9.69
2019-01-18T14:32:40.794Z,9.56
2019-01-18T14:33:40.823Z,9.35
2019-01-18T14:34:40.774Z,9.18
2019-01-18T14:35:40.762Z,9.25
2019-01-18T14:36:40.752Z,9.17
2019-01-18T14:37:40.739Z,8.78
2019-01-18T14:38:40.729Z,8.60
2019-01-18T14:39:40.716Z,8.57
2019-01-18T14:40:40.715Z,8.57
2019-01-18T14:41:40.693Z,8.47
2019-01-18T14:42:40.684Z,8.42
2019-01-18T14:43:40.679Z,8.25
2019-01-18T14:44:40.664Z,8.22
2019-01-18T14:45:40.650Z,8.18
2019-01-18T14:46:40.635Z,8.16
2019-01-18T14:47:40.625Z,7.98
2019-01-18T14:48:40.614Z,7.90
2019-01-18T14:49:40.609Z,7.70
2019-01-18T14:50:40.597Z,7.62
2019-01-18T14:51:40.582Z,7.54
2019-01-18T14:52:40.573Z,7.47
2019-01-18T14:53:40.560Z,7.21
2019-01-18T14:54:40.543Z,7.01
2019-01-18T14:55:40.536Z,6.84
2019-01-18T14:56:40.521Z,6.81
2019-01-18T14:57:42.510Z,6.91
2019-01-18T14:58:40.497Z,6.99
2019-01-18T14:59:40.492Z,6.99
2019-01-18T15:00:40.474Z,6.91
2019-01-18T15:01:40.465Z,6.77
2019-01-18T15:02:40.456Z,6.72
2019-01-18T15:03:40.438Z,6.64
2019-01-18T15:04:40.427Z,6.66
2019-01-18T15:05:40.421Z,6.54
2019-01-18T15:06:40.410Z,6.52
2019-01-18T15:07:40.402Z,6.54
2019-01-18T15:08:40.384Z,6.73
2019-01-18T15:09:40.430Z,6.66
2019-01-18T15:10:40.367Z,6.67
2019-01-18T15:11:40.356Z,6.77
2019-01-18T15:12:40.339Z,6.73
2019-01-18T15:13:40.334Z,6.67
2019-01-18T15:14:40.317Z,6.77
2019-01-18T15:15:40.308Z,6.73
2019-01-18T15:16:40.298Z,6.72
2019-01-18T15:17:40.292Z,6.60
2019-01-18T15:18:40.278Z,6.42
2019-01-18T15:19:40.267Z,6.37
2019-01-18T15:20:40.254Z,6.37
2019-01-18T15:21:40.242Z,6.26
2019-01-18T15:22:40.231Z,6.26
2019-01-18T15:23:40.224Z,6.12
2019-01-18T15:24:40.214Z,6.12
2019-01-18T15:25:40.202Z,6.12
2019-01-18T15:26:40.196Z,5.90
2019-01-18T15:27:40.176Z,5.57
2019-01-18T15:28:40.166Z,5.29